Tolstoy, South Dakota
Current Conditions -  °F | °C
As of 11:52 AM on Friday 28 Nov 2014 (Local Time) from KMBG Reporting Station
Clear Clear  
Wind Chill: 17°   Ceiling: Unl
Heat Index: 26°   Visibility: 10mi
Dew Point: 19°   Wind: 9mph
Humidity: 75%   Direction: 140°SE
Pressure: 29.67"   Gusts: NA
Location:  45.21°N, 99.61°W
Report Text: KMBG 281752Z AUTO 14008KT 10SM CLR M03/M07 A2967 RMK AO2 SLP075 T10331072 11028 21089 58015
Loading
Personal Weather Stations






























Interactive Weather Map New forecast layout! Learn more

10-Day Weather Forecast

Advertisements
Track Severe Weather on mobile